Time;durP1;ratioP1;P1;durP2;ratioP2;P2;SDS_P1;SDS_P2;PMS_P1;PMS_P2;Temp;Humidity;BMP_temperature;BMP_pressure;BME280_temperature;BME280_humidity;BME280_pressure;Samples;Min_cycle;Max_cycle;Signal;HPM_P1;HPM_P2
2023/05/09 00:00:36;;;;;;;37.22;23.77;;;14.90;99.90;;;;;;5023931;28;20044;-71
2023/05/09 00:03:04;;;;;;;34.97;21.60;;;14.90;99.90;;;;;;5024846;28;20045;-71
2023/05/09 00:05:30;;;;;;;38.72;24.05;;;14.90;99.90;;;;;;5000942;28;20037;-71
2023/05/09 00:07:55;;;;;;;35.50;22.77;;;14.90;99.90;;;;;;5016900;28;20038;-71
2023/05/09 00:10:21;;;;;;;39.65;23.23;;;14.90;99.90;;;;;;5008338;28;20100;-71
2023/05/09 00:12:48;;;;;;;40.58;25.33;;;14.90;99.90;;;;;;5013855;28;20029;-71
2023/05/09 00:15:14;;;;;;;39.85;25.33;;;15.00;99.90;;;;;;5009999;28;20092;-71
2023/05/09 00:17:40;;;;;;;45.08;27.33;;;15.00;99.90;;;;;;5013940;28;20037;-71
2023/05/09 00:20:10;;;;;;;37.50;23.58;;;15.00;99.90;;;;;;5027212;28;20049;-72
2023/05/09 00:22:36;;;;;;;38.83;23.20;;;15.10;99.90;;;;;;5018316;28;20124;-71
2023/05/09 00:25:02;;;;;;;37.05;23.13;;;15.10;99.90;;;;;;5014618;28;20461;-72
2023/05/09 00:27:29;;;;;;;32.58;21.55;;;15.10;99.90;;;;;;5015826;28;20389;-71
2023/05/09 00:29:55;;;;;;;31.98;21.27;;;15.20;99.90;;;;;;5015144;28;20068;-71
2023/05/09 00:32:21;;;;;;;33.35;21.83;;;15.20;99.90;;;;;;5009698;28;20124;-71
2023/05/09 00:34:46;;;;;;;34.08;21.67;;;15.20;99.90;;;;;;5023688;28;20112;-71
2023/05/09 00:37:12;;;;;;;36.55;22.02;;;15.20;99.90;;;;;;5024043;28;20052;-71
2023/05/09 00:39:37;;;;;;;32.88;21.67;;;15.20;99.90;;;;;;5012972;28;20405;-73
2023/05/09 00:42:03;;;;;;;34.58;22.50;;;15.10;99.90;;;;;;5046349;28;20045;-71
2023/05/09 00:44:29;;;;;;;34.53;22.35;;;15.20;99.90;;;;;;5022546;28;20038;-71
2023/05/09 00:46:55;;;;;;;38.78;24.63;;;15.20;99.90;;;;;;5012740;28;20107;-71
2023/05/09 00:49:20;;;;;;;32.95;21.70;;;15.20;99.90;;;;;;5021391;28;20044;-73
2023/05/09 00:51:46;;;;;;;36.05;22.85;;;15.20;99.90;;;;;;5028627;28;20080;-73
2023/05/09 00:54:12;;;;;;;36.78;22.50;;;15.20;99.90;;;;;;5027113;28;20140;-73
2023/05/09 00:56:38;;;;;;;37.42;23.60;;;15.30;99.90;;;;;;5032727;28;20106;-73
2023/05/09 00:59:05;;;;;;;36.17;23.48;;;15.30;99.90;;;;;;5024351;28;20041;-73
2023/05/09 01:01:31;;;;;;;39.45;24.55;;;15.30;99.90;;;;;;5021028;28;20043;-73
2023/05/09 01:03:57;;;;;;;41.65;25.50;;;15.30;99.90;;;;;;5021713;28;20037;-74
2023/05/09 01:06:41;;;;;;;42.33;24.23;;;15.30;99.90;;;;;;5040406;28;20056;-73
2023/05/09 01:09:34;;;;;;;46.55;27.20;;;15.30;99.90;;;;;;5002283;28;20140;-74
2023/05/09 01:12:15;;;;;;;39.78;24.38;;;15.30;99.90;;;;;;5003735;28;20129;-73
2023/05/09 01:14:40;;;;;;;;;;;15.30;99.90;;;;;;5012881;28;20069;-74
2023/05/09 01:17:22;;;;;;;44.85;26.42;;;15.30;99.90;;;;;;5011649;28;20025;-74
2023/05/09 01:20:21;;;;;;;48.17;27.05;;;15.30;99.90;;;;;;5021059;28;20080;-73
2023/05/09 01:22:56;;;;;;;46.10;26.92;;;15.30;99.90;;;;;;5017425;28;20033;-74
2023/05/09 01:25:47;;;;;;;47.78;27.17;;;15.20;99.90;;;;;;5016801;28;20038;-73
2023/05/09 01:28:13;;;;;;;45.30;26.20;;;15.20;99.90;;;;;;5014317;28;20124;-74
2023/05/09 01:30:45;;;;;;;50.13;27.52;;;15.30;99.90;;;;;;5011482;28;20133;-73
2023/05/09 01:33:16;;;;;;;50.20;27.83;;;15.20;99.90;;;;;;5013346;28;20300;-74
2023/05/09 01:35:45;;;;;;;52.58;28.83;;;15.20;99.90;;;;;;5014364;28;20040;-73
2023/05/09 01:38:15;;;;;;;56.42;29.45;;;15.20;99.90;;;;;;5026012;28;20041;-73
2023/05/09 01:40:43;;;;;;;53.92;29.92;;;15.10;99.90;;;;;;5018984;28;20148;-73
2023/05/09 01:43:11;;;;;;;52.25;29.38;;;15.10;99.90;;;;;;4995973;28;20502;-73
2023/05/09 01:45:38;;;;;;;56.30;30.60;;;15.00;99.90;;;;;;5012271;28;20041;-73
2023/05/09 01:48:07;;;;;;;55.80;29.73;;;15.00;99.90;;;;;;5018107;28;20056;-73
2023/05/09 01:50:34;;;;;;;55.10;29.55;;;14.90;99.90;;;;;;5004637;28;20038;-73
2023/05/09 01:53:01;;;;;;;58.92;29.98;;;14.90;99.90;;;;;;5012635;28;20039;-74
2023/05/09 01:55:33;;;;;;;58.63;30.17;;;14.80;99.90;;;;;;5024768;28;20044;-73
2023/05/09 01:57:59;;;;;;;51.88;29.13;;;14.80;99.90;;;;;;5002546;28;20037;-74
2023/05/09 02:00:25;;;;;;;49.95;28.67;;;14.70;99.90;;;;;;5010411;28;20102;-73
2023/05/09 02:02:51;;;;;;;47.95;27.58;;;14.70;99.90;;;;;;5018277;28;20057;-74
2023/05/09 02:05:17;;;;;;;47.20;27.02;;;14.70;99.90;;;;;;5014416;28;20478;-73
2023/05/09 02:07:46;;;;;;;47.72;27.38;;;14.60;99.90;;;;;;5022567;28;20041;-73
2023/05/09 02:10:14;;;;;;;46.15;26.75;;;14.60;99.90;;;;;;5020921;28;20064;-73
2023/05/09 02:12:40;;;;;;;43.67;26.23;;;14.50;99.90;;;;;;5027107;28;20058;-73
2023/05/09 02:15:06;;;;;;;45.38;27.33;;;14.50;99.90;;;;;;5017032;28;20116;-74
2023/05/09 02:17:31;;;;;;;40.72;25.77;;;14.50;99.90;;;;;;5020946;28;20053;-74
2023/05/09 02:19:57;;;;;;;46.40;26.52;;;14.50;99.90;;;;;;5015668;28;20037;-73
2023/05/09 02:22:23;;;;;;;46.55;26.92;;;14.40;99.90;;;;;;5019017;28;20045;-73
2023/05/09 02:24:48;;;;;;;42.50;25.33;;;14.40;99.90;;;;;;5001519;28;20049;-73
2023/05/09 02:27:15;;;;;;;38.97;24.13;;;14.50;99.90;;;;;;5018829;28;20519;-74
2023/05/09 02:29:48;;;;;;;35.42;22.67;;;14.50;99.90;;;;;;5013325;28;20038;-72
2023/05/09 02:32:15;;;;;;;35.90;21.67;;;14.50;99.90;;;;;;5026668;28;20033;-72
2023/05/09 02:34:42;;;;;;;33.42;21.48;;;14.50;99.90;;;;;;5010455;28;20137;-74
2023/05/09 02:37:08;;;;;;;34.42;21.35;;;14.40;99.90;;;;;;5015490;28;20049;-74
2023/05/09 02:39:35;;;;;;;33.20;21.27;;;14.40;99.90;;;;;;5040193;28;20445;-73
2023/05/09 02:42:12;;;;;;;34.28;21.17;;;14.40;99.90;;;;;;5005818;28;20049;-73
2023/05/09 02:44:38;;;;;;;31.17;20.10;;;14.40;99.90;;;;;;5021055;28;20124;-73
2023/05/09 02:47:05;;;;;;;33.03;20.40;;;14.40;99.90;;;;;;5013787;28;20540;-74
2023/05/09 02:49:31;;;;;;;32.75;19.60;;;14.30;99.90;;;;;;5017735;28;20700;-73
2023/05/09 02:51:57;;;;;;;30.58;19.77;;;14.30;99.90;;;;;;5034503;28;20044;-73
2023/05/09 02:54:23;;;;;;;31.05;18.70;;;14.20;99.90;;;;;;5014206;28;20057;-73
2023/05/09 02:56:48;;;;;;;30.55;19.60;;;14.20;99.90;;;;;;5017425;28;20444;-73
2023/05/09 02:59:14;;;;;;;29.00;18.02;;;14.20;99.90;;;;;;5022042;28;20681;-72
2023/05/09 03:01:40;;;;;;;25.77;17.35;;;14.20;99.90;;;;;;5011641;28;20396;-73
2023/05/09 03:04:06;;;;;;;26.15;18.63;;;14.20;99.90;;;;;;5009498;28;20045;-73
2023/05/09 03:06:31;;;;;;;26.65;18.08;;;14.10;99.90;;;;;;5005796;28;20065;-74
2023/05/09 03:08:57;;;;;;;25.95;17.83;;;14.10;99.90;;;;;;5017864;28;20033;-73
2023/05/09 03:11:22;;;;;;;27.33;17.30;;;14.10;99.90;;;;;;5002550;28;20073;-73
2023/05/09 03:13:48;;;;;;;30.55;17.63;;;14.00;99.90;;;;;;5015715;28;20046;-73
2023/05/09 03:16:16;;;;;;;23.63;17.00;;;14.00;99.90;;;;;;4999382;28;20121;-73
2023/05/09 03:18:41;;;;;;;26.63;16.50;;;14.00;99.90;;;;;;5007097;28;20052;-73
2023/05/09 03:21:07;;;;;;;22.30;15.85;;;13.90;99.90;;;;;;5015219;28;20473;-73
2023/05/09 03:23:32;;;;;;;25.83;16.85;;;14.00;99.90;;;;;;5009951;28;20038;-73
2023/05/09 03:25:58;;;;;;;24.88;16.17;;;14.00;99.90;;;;;;5017799;28;20393;-74
2023/05/09 03:28:24;;;;;;;23.63;15.60;;;13.90;99.90;;;;;;5014137;28;20033;-73
2023/05/09 03:30:49;;;;;;;26.42;16.88;;;13.90;99.90;;;;;;5006799;28;20033;-73
2023/05/09 03:33:15;;;;;;;25.35;16.65;;;13.90;99.90;;;;;;5007182;28;20030;-73
2023/05/09 03:35:40;;;;;;;24.23;16.35;;;13.90;99.90;;;;;;5016522;28;20494;-73
2023/05/09 03:38:06;;;;;;;26.17;16.48;;;13.90;99.90;;;;;;5014448;28;20034;-73
2023/05/09 03:40:32;;;;;;;23.70;15.65;;;13.90;99.90;;;;;;5006689;28;20482;-73
2023/05/09 03:42:57;;;;;;;24.98;15.60;;;13.90;99.90;;;;;;5017044;28;20042;-73
2023/05/09 03:45:23;;;;;;;24.25;15.45;;;13.90;99.90;;;;;;5019520;28;20038;-73
2023/05/09 03:47:49;;;;;;;22.88;15.75;;;13.80;99.90;;;;;;5015203;28;20045;-73
2023/05/09 03:50:14;;;;;;;25.23;16.35;;;13.80;99.90;;;;;;5001634;28;20069;-73
2023/05/09 03:52:40;;;;;;;24.17;15.95;;;13.80;99.90;;;;;;5019487;28;20034;-73
2023/05/09 03:55:06;;;;;;;23.13;15.80;;;13.80;99.90;;;;;;5020237;28;20057;-73
2023/05/09 03:57:33;;;;;;;22.10;14.98;;;13.80;99.90;;;;;;5003913;28;20102;-73
2023/05/09 03:59:58;;;;;;;23.63;15.35;;;13.70;99.90;;;;;;5003043;28;20033;-73
2023/05/09 04:02:24;;;;;;;24.10;14.60;;;13.70;99.90;;;;;;5019941;28;20056;-74
2023/05/09 04:04:51;;;;;;;22.20;14.18;;;13.70;99.90;;;;;;5015858;28;20457;-73
2023/05/09 04:07:17;;;;;;;23.30;15.05;;;13.70;99.90;;;;;;5018912;28;20111;-73
2023/05/09 04:09:43;;;;;;;22.35;15.98;;;13.70;99.90;;;;;;5019574;28;20060;-73
2023/05/09 04:12:09;;;;;;;23.48;15.90;;;13.70;99.90;;;;;;5036045;28;20041;-73
2023/05/09 04:14:35;;;;;;;24.42;15.10;;;13.60;99.90;;;;;;5019427;28;20037;-73
2023/05/09 04:17:00;;;;;;;26.13;15.77;;;13.70;99.90;;;;;;5016492;28;20053;-73
2023/05/09 04:19:26;;;;;;;24.33;14.80;;;13.60;99.90;;;;;;5020382;28;20676;-73
2023/05/09 04:21:52;;;;;;;24.38;15.70;;;13.60;99.90;;;;;;5019614;28;20037;-73
2023/05/09 04:24:17;;;;;;;26.35;16.40;;;13.60;99.90;;;;;;5023496;28;20056;-73
2023/05/09 04:26:43;;;;;;;23.98;15.98;;;13.60;99.90;;;;;;5022575;28;20033;-73
2023/05/09 04:29:09;;;;;;;25.35;16.73;;;13.60;99.90;;;;;;5016549;28;20116;-73
2023/05/09 04:31:34;;;;;;;24.92;15.50;;;13.60;99.90;;;;;;5026267;28;20044;-73
2023/05/09 04:34:00;;;;;;;25.90;14.85;;;13.60;99.90;;;;;;5016905;28;20037;-73
2023/05/09 04:36:26;;;;;;;21.67;14.25;;;13.60;99.90;;;;;;5027021;28;20056;-73
2023/05/09 04:38:52;;;;;;;25.10;16.00;;;13.60;99.90;;;;;;4996906;28;20095;-73
2023/05/09 04:41:17;;;;;;;24.30;16.02;;;13.60;99.90;;;;;;5002883;28;20065;-73
2023/05/09 04:43:44;;;;;;;22.45;14.55;;;13.60;99.90;;;;;;5019053;28;20432;-73
2023/05/09 04:46:10;;;;;;;23.55;15.85;;;13.70;99.90;;;;;;5018457;28;20037;-73
2023/05/09 04:48:36;;;;;;;26.20;16.55;;;13.70;99.90;;;;;;5020231;28;20171;-73
2023/05/09 04:51:01;;;;;;;24.73;15.98;;;13.70;99.90;;;;;;5013227;28;20398;-73
2023/05/09 04:53:27;;;;;;;27.85;17.85;;;13.70;99.90;;;;;;5015980;28;20123;-73
2023/05/09 04:55:53;;;;;;;28.50;18.40;;;13.70;99.90;;;;;;4998861;28;20041;-73
2023/05/09 04:58:19;;;;;;;29.23;17.70;;;13.80;99.90;;;;;;5004143;28;20039;-73
2023/05/09 05:00:45;;;;;;;34.95;18.52;;;13.80;99.90;;;;;;5040553;28;21548;-73
2023/05/09 05:03:11;;;;;;;25.83;15.98;;;13.80;99.90;;;;;;5018717;28;20047;-73
2023/05/09 05:05:36;;;;;;;29.77;18.48;;;13.90;99.90;;;;;;5021253;28;20465;-73
2023/05/09 05:08:02;;;;;;;35.67;19.38;;;13.90;99.90;;;;;;5003331;28;20035;-73
2023/05/09 05:10:29;;;;;;;32.08;19.60;;;13.90;99.90;;;;;;5008937;28;20049;-74
2023/05/09 05:12:54;;;;;;;31.88;19.40;;;14.00;99.90;;;;;;5006261;28;20037;-75
2023/05/09 05:15:20;;;;;;;29.20;19.50;;;14.00;99.90;;;;;;5008485;28;20067;-73
2023/05/09 05:17:46;;;;;;;34.90;20.05;;;14.10;99.90;;;;;;5019605;28;20096;-73
2023/05/09 05:20:11;;;;;;;31.67;20.25;;;14.10;99.90;;;;;;5024712;28;20433;-73
2023/05/09 05:22:37;;;;;;;33.22;19.63;;;14.10;99.90;;;;;;5017711;28;20053;-73
2023/05/09 05:25:03;;;;;;;34.00;20.45;;;14.20;99.90;;;;;;4995134;28;20482;-74
2023/05/09 05:27:29;;;;;;;31.65;19.45;;;14.20;99.90;;;;;;5002424;28;20056;-73
2023/05/09 05:29:55;;;;;;;32.70;21.00;;;14.20;99.90;;;;;;5006106;28;20041;-73
2023/05/09 05:32:21;;;;;;;34.40;20.77;;;14.20;99.90;;;;;;5020859;28;20492;-75
2023/05/09 05:34:46;;;;;;;33.80;21.45;;;14.30;99.90;;;;;;5014976;28;20045;-73
2023/05/09 05:37:12;;;;;;;35.90;20.98;;;14.30;99.90;;;;;;4992499;28;20057;-74
2023/05/09 05:39:38;;;;;;;35.83;21.08;;;14.30;99.90;;;;;;4994295;28;20603;-73
2023/05/09 05:42:04;;;;;;;35.13;22.55;;;14.40;99.90;;;;;;5010668;28;20139;-72
2023/05/09 05:44:34;;;;;;;38.45;21.98;;;14.30;99.90;;;;;;5008815;28;20044;-73
2023/05/09 05:47:00;;;;;;;30.35;20.10;;;14.40;99.90;;;;;;5005289;28;20517;-74
2023/05/09 05:49:26;;;;;;;33.67;21.27;;;14.40;99.90;;;;;;5023845;28;20498;-73
2023/05/09 05:51:52;;;;;;;33.25;20.92;;;14.40;99.90;;;;;;5023754;28;20033;-73
2023/05/09 05:54:17;;;;;;;34.20;20.30;;;14.40;99.90;;;;;;5013784;28;20041;-74
2023/05/09 05:56:43;;;;;;;37.20;21.98;;;14.50;99.90;;;;;;5024737;28;20532;-73
2023/05/09 05:59:08;;;;;;;37.53;22.88;;;14.50;99.90;;;;;;5013902;28;20053;-74
2023/05/09 06:01:34;;;;;;;36.17;22.25;;;14.50;99.90;;;;;;5017143;28;20036;-72
2023/05/09 06:03:59;;;;;;;38.08;21.92;;;14.60;99.90;;;;;;5014628;28;20052;-74
2023/05/09 06:06:26;;;;;;;36.53;22.52;;;14.60;99.90;;;;;;5013988;28;20084;-74
2023/05/09 06:08:51;;;;;;;37.00;22.85;;;14.60;99.90;;;;;;5011900;28;20033;-73
2023/05/09 06:11:17;;;;;;;36.42;21.40;;;14.70;99.90;;;;;;4996268;28;20099;-74
2023/05/09 06:13:43;;;;;;;34.10;21.73;;;14.70;99.90;;;;;;4998426;28;20580;-73
2023/05/09 06:16:09;;;;;;;34.67;22.02;;;14.70;99.90;;;;;;5015353;28;20078;-73
2023/05/09 06:18:36;;;;;;;34.33;21.52;;;14.80;99.90;;;;;;4992902;28;20425;-74
2023/05/09 06:21:11;;;;;;;35.97;22.80;;;14.90;99.90;;;;;;4995117;28;20045;-73
2023/05/09 06:23:36;;;;;;;38.10;23.25;;;14.90;99.90;;;;;;5016947;28;20478;-73
2023/05/09 06:26:03;;;;;;;37.80;22.98;;;15.00;99.90;;;;;;5017597;28;20108;-74
2023/05/09 06:28:29;;;;;;;38.22;23.75;;;15.10;99.90;;;;;;5017660;28;20045;-76
2023/05/09 06:30:54;;;;;;;35.17;22.58;;;15.10;99.90;;;;;;5025267;28;20053;-74
2023/05/09 06:33:20;;;;;;;37.90;23.80;;;15.20;99.90;;;;;;5004482;28;20038;-73
2023/05/09 06:35:46;;;;;;;39.92;23.45;;;15.20;99.90;;;;;;5018225;28;20022;-74
2023/05/09 06:38:12;;;;;;;36.60;23.42;;;15.20;99.90;;;;;;5010267;28;20042;-74
2023/05/09 06:40:38;;;;;;;36.03;23.30;;;15.20;99.90;;;;;;5001984;28;20050;-75
2023/05/09 06:43:04;;;;;;;41.05;24.40;;;15.20;99.90;;;;;;4996851;28;20837;-73
2023/05/09 06:45:36;;;;;;;38.75;23.45;;;15.20;99.90;;;;;;5027149;28;20033;-74
2023/05/09 06:48:03;;;;;;;37.58;22.73;;;15.20;99.90;;;;;;4992890;28;20053;-78
2023/05/09 06:50:29;;;;;;;37.90;23.35;;;15.30;99.90;;;;;;5014765;28;20033;-73
2023/05/09 06:52:54;;;;;;;39.95;22.30;;;15.30;99.90;;;;;;5002263;28;20489;-72
2023/05/09 06:55:20;;;;;;;39.15;24.13;;;15.40;99.90;;;;;;5024495;28;20040;-73
2023/05/09 06:57:45;;;;;;;40.75;25.02;;;15.40;99.90;;;;;;5009101;28;20180;-71
2023/05/09 07:00:11;;;;;;;38.65;23.40;;;15.40;99.90;;;;;;5012798;28;20135;-75
2023/05/09 07:02:40;;;;;;;43.88;25.15;;;15.50;99.90;;;;;;5013300;28;20531;-72
2023/05/09 07:05:07;;;;;;;40.20;24.90;;;15.50;99.90;;;;;;5013653;28;20053;-72
2023/05/09 07:07:33;;;;;;;40.38;23.70;;;15.50;99.90;;;;;;5000739;28;20148;-73
2023/05/09 07:10:00;;;;;;;40.42;24.40;;;15.60;99.90;;;;;;5011150;28;20132;-74
2023/05/09 07:12:25;;;;;;;40.05;23.67;;;15.50;99.90;;;;;;5026970;28;20041;-76
2023/05/09 07:14:51;;;;;;;42.10;24.63;;;15.50;99.90;;;;;;5023796;28;20048;-77
2023/05/09 07:17:16;;;;;;;43.05;25.38;;;15.40;99.90;;;;;;5028688;28;20029;-76
2023/05/09 07:19:42;;;;;;;41.88;24.65;;;15.40;99.90;;;;;;5013923;28;20041;-74
2023/05/09 07:22:07;;;;;;;43.55;25.38;;;15.30;99.90;;;;;;5027046;28;20056;-75
2023/05/09 07:24:33;;;;;;;42.40;25.60;;;15.40;99.90;;;;;;5007029;28;20041;-72
2023/05/09 07:27:02;;;;;;;44.60;23.67;;;15.30;99.90;;;;;;5026177;28;20045;-72
2023/05/09 07:29:27;;;;;;;44.45;25.88;;;15.30;99.90;;;;;;5016906;28;20038;-76
2023/05/09 07:31:53;;;;;;;48.20;25.83;;;15.30;99.90;;;;;;5025535;28;20355;-73
2023/05/09 07:34:19;;;;;;;49.45;25.75;;;15.30;99.90;;;;;;5025494;28;20071;-72
2023/05/09 07:36:45;;;;;;;52.17;27.42;;;15.40;99.90;;;;;;5024056;28;20041;-74
2023/05/09 07:39:10;;;;;;;48.45;26.15;;;15.40;99.90;;;;;;5013447;28;20048;-74
2023/05/09 07:41:36;;;;;;;50.75;26.85;;;15.40;99.90;;;;;;5004902;28;20129;-73
2023/05/09 07:44:02;;;;;;;53.60;29.02;;;15.40;99.90;;;;;;5012307;28;20144;-73
2023/05/09 07:46:27;;;;;;;54.22;27.70;;;15.50;99.90;;;;;;5014932;28;20037;-72
2023/05/09 07:48:53;;;;;;;53.15;27.73;;;15.50;99.90;;;;;;5015849;28;20042;-73
2023/05/09 07:51:18;;;;;;;49.67;27.88;;;15.50;99.90;;;;;;4998663;28;20030;-72
2023/05/09 07:53:54;;;;;;;57.88;29.98;;;15.50;99.90;;;;;;5024104;28;20128;-73
2023/05/09 07:56:21;;;;;;;55.95;29.10;;;15.50;99.90;;;;;;5009137;28;20041;-72
2023/05/09 07:58:47;;;;;;;54.42;28.13;;;15.60;99.90;;;;;;5028189;28;20570;-72
2023/05/09 08:01:13;;;;;;;60.95;28.98;;;15.60;99.90;;;;;;5018802;28;20108;-73
2023/05/09 08:03:38;;;;;;;56.85;29.10;;;15.70;99.90;;;;;;5021369;28;20496;-74
2023/05/09 08:06:04;;;;;;;50.75;27.15;;;15.70;99.90;;;;;;5023180;28;20038;-73
2023/05/09 08:08:30;;;;;;;55.63;27.55;;;15.80;99.90;;;;;;5026875;28;20044;-73
2023/05/09 08:10:55;;;;;;;54.33;27.38;;;15.90;99.90;;;;;;5028997;28;20041;-72
2023/05/09 08:13:21;;;;;;;54.80;28.05;;;15.90;99.90;;;;;;5033432;28;20037;-75
2023/05/09 08:15:47;;;;;;;52.17;29.38;;;15.90;99.90;;;;;;5014830;28;20060;-77
2023/05/09 08:18:16;;;;;;;52.10;27.85;;;15.90;99.90;;;;;;5031375;28;20124;-75
2023/05/09 08:20:42;;;;;;;55.00;28.02;;;15.90;99.90;;;;;;5010659;28;20045;-76
2023/05/09 08:23:08;;;;;;;50.63;28.00;;;16.10;99.90;;;;;;5016264;28;20043;-73
2023/05/09 08:25:33;;;;;;;58.08;28.23;;;16.10;99.90;;;;;;5012691;28;20063;-75
2023/05/09 08:27:59;;;;;;;52.75;29.75;;;16.30;99.90;;;;;;5031165;28;20041;-74
2023/05/09 08:30:25;;;;;;;56.28;28.42;;;16.30;99.90;;;;;;5028075;28;20574;-75
2023/05/09 08:32:51;;;;;;;49.63;27.88;;;16.40;99.90;;;;;;5032907;28;20128;-74
2023/05/09 08:35:16;;;;;;;50.90;26.60;;;16.50;99.90;;;;;;5021129;28;20481;-73
2023/05/09 08:37:42;;;;;;;52.70;26.85;;;16.50;99.90;;;;;;5033309;28;20037;-73
2023/05/09 08:40:08;;;;;;;52.15;26.52;;;16.50;99.90;;;;;;5024301;28;20064;-72
2023/05/09 08:42:37;;;;;;;53.17;27.15;;;16.60;99.90;;;;;;5012633;28;20087;-74
2023/05/09 08:45:09;;;;;;;53.88;27.38;;;16.80;99.90;;;;;;5024433;28;20829;-75
2023/05/09 08:47:38;;;;;;;56.13;28.25;;;16.80;99.90;;;;;;5026206;28;20108;-72
2023/05/09 08:50:05;;;;;;;55.15;28.60;;;16.90;99.90;;;;;;5021043;28;20077;-74
2023/05/09 08:52:34;;;;;;;58.15;28.80;;;17.00;99.90;;;;;;5028468;28;20037;-75
2023/05/09 08:55:02;;;;;;;54.90;27.17;;;16.90;99.90;;;;;;5024527;28;20080;-76
2023/05/09 08:57:27;;;;;;;57.60;26.60;;;16.80;99.90;;;;;;5023447;28;20045;-74
2023/05/09 08:59:55;;;;;;;54.88;26.60;;;16.70;99.90;;;;;;5023449;28;20041;-73
2023/05/09 09:02:21;;;;;;;58.55;28.00;;;16.90;99.90;;;;;;5020617;28;20399;-77
2023/05/09 09:04:46;;;;;;;50.90;27.15;;;17.00;99.90;;;;;;5007510;28;20049;-72
2023/05/09 09:07:14;;;;;;;52.97;26.02;;;17.10;99.90;;;;;;5020793;28;20036;-74
2023/05/09 09:09:44;;;;;;;51.58;26.60;;;17.20;99.90;;;;;;5042249;28;20029;-76
2023/05/09 09:12:11;;;;;;;48.95;25.63;;;17.40;99.90;;;;;;5030904;28;20079;-75
2023/05/09 09:14:40;;;;;;;43.78;25.48;;;17.50;99.90;;;;;;5030023;28;20033;-73
2023/05/09 09:17:08;;;;;;;44.88;24.42;;;17.50;99.70;;;;;;5032753;28;20049;-75
2023/05/09 09:19:35;;;;;;;43.67;24.65;;;17.60;99.90;;;;;;5031178;28;20084;-76
2023/05/09 09:22:03;;;;;;;45.15;24.15;;;17.70;99.90;;;;;;5031947;28;20111;-75
2023/05/09 09:24:30;;;;;;;42.92;23.98;;;17.80;99.90;;;;;;5031878;28;20077;-77
2023/05/09 09:26:56;;;;;;;41.35;23.67;;;17.70;98.60;;;;;;5027374;28;20041;-75
2023/05/09 09:29:22;;;;;;;40.25;21.98;;;17.80;99.40;;;;;;5023138;28;20037;-74
2023/05/09 09:31:52;;;;;;;43.00;23.55;;;17.80;99.10;;;;;;5030725;28;20049;-76
2023/05/09 09:34:20;;;;;;;38.13;22.52;;;17.90;98.40;;;;;;5027523;28;20083;-74
2023/05/09 09:36:47;;;;;;;43.05;23.60;;;17.80;98.60;;;;;;5028108;28;20504;-75
2023/05/09 09:39:13;;;;;;;42.15;22.88;;;17.90;98.40;;;;;;5015026;28;20462;-75
2023/05/09 09:41:39;;;;;;;42.45;23.73;;;17.90;98.20;;;;;;5019318;28;20140;-72
2023/05/09 09:44:08;;;;;;;37.78;22.25;;;18.10;98.10;;;;;;5040712;28;20042;-73
2023/05/09 09:46:47;;;;;;;42.92;23.27;;;18.20;97.50;;;;;;5010939;28;20037;-72
2023/05/09 09:49:14;;;;;;;39.90;22.70;;;18.30;96.60;;;;;;5005408;28;20047;-72
2023/05/09 09:51:40;;;;;;;40.15;22.55;;;18.20;96.90;;;;;;5021823;28;20033;-72
2023/05/09 09:54:07;;;;;;;40.92;23.45;;;18.10;96.90;;;;;;5027083;28;20049;-72
2023/05/09 09:56:48;;;;;;;43.63;24.25;;;18.20;96.50;;;;;;5019557;28;20048;-74
2023/05/09 09:59:22;;;;;;;42.65;24.10;;;18.10;95.50;;;;;;5002937;28;20045;-74
2023/05/09 10:01:55;;;;;;;38.85;22.92;;;17.90;96.80;;;;;;5020122;28;20045;-74
2023/05/09 10:04:22;;;;;;;39.58;22.60;;;17.80;96.30;;;;;;5025071;28;20060;-74
2023/05/09 10:07:09;;;;;;;41.20;21.67;;;17.70;96.90;;;;;;5037174;28;20105;-71
2023/05/09 10:09:36;;;;;;;33.55;21.23;;;17.70;96.20;;;;;;5023017;28;20069;-72
2023/05/09 10:12:07;;;;;;;35.28;21.25;;;17.60;96.90;;;;;;5026788;28;20037;-72
2023/05/09 10:14:34;;;;;;;38.10;22.45;;;17.50;96.50;;;;;;5019685;28;20095;-74
2023/05/09 10:17:01;;;;;;;39.55;22.30;;;17.50;96.70;;;;;;5018163;28;20054;-74
2023/05/09 10:19:28;;;;;;;37.72;22.58;;;17.50;96.00;;;;;;5002478;28;20041;-73
2023/05/09 10:21:56;;;;;;;37.33;21.40;;;17.70;96.20;;;;;;5025586;28;20393;-74
2023/05/09 10:25:00;;;;;;;38.95;21.63;;;18.00;94.70;;;;;;5013684;28;20055;-73
2023/05/09 10:27:29;;;;;;;36.60;20.23;;;18.40;94.70;;;;;;5032790;28;20187;-71
2023/05/09 10:30:11;;;;;;;35.53;21.77;;;18.90;94.90;;;;;;5025415;28;20041;-70
2023/05/09 10:33:06;;;;;;;36.47;21.52;;;19.20;91.50;;;;;;5030152;28;20785;-72
2023/05/09 10:35:36;;;;;;;31.08;19.45;;;19.70;91.90;;;;;;5018376;28;20481;-74
2023/05/09 10:38:02;;;;;;;35.67;21.90;;;19.90;92.40;;;;;;5011425;28;20405;-75
2023/05/09 10:40:31;;;;;;;36.30;21.75;;;20.00;92.10;;;;;;5005210;28;20060;-72
2023/05/09 10:42:57;;;;;;;35.28;20.30;;;19.90;91.50;;;;;;5000825;28;20049;-75
2023/05/09 10:45:23;;;;;;;32.85;20.48;;;19.70;91.70;;;;;;5023698;28;20041;-72
2023/05/09 10:47:51;;;;;;;38.67;22.20;;;19.80;91.90;;;;;;5017971;28;20041;-76
2023/05/09 10:50:20;;;;;;;41.38;24.58;;;19.50;91.60;;;;;;4999973;28;20041;-75
2023/05/09 10:53:06;;;;;;;46.35;27.33;;;19.30;91.90;;;;;;5018716;28;20076;-75
2023/05/09 10:55:49;;;;;;;46.90;26.67;;;19.10;92.00;;;;;;5020880;28;20517;-77
2023/05/09 10:58:19;;;;;;;49.72;28.05;;;18.90;92.50;;;;;;5020015;28;20133;-75
2023/05/09 11:00:48;;;;;;;44.28;25.60;;;18.70;92.80;;;;;;5021065;28;20044;-77
2023/05/09 11:03:14;;;;;;;47.63;27.55;;;18.60;93.20;;;;;;5024657;28;20045;-72
2023/05/09 11:05:40;;;;;;;47.20;26.42;;;18.70;93.30;;;;;;5022233;28;20038;-76
2023/05/09 11:08:19;;;;;;;47.40;27.60;;;18.70;93.20;;;;;;5025716;28;20470;-77
2023/05/09 11:10:44;;;;;;;50.35;28.17;;;18.80;92.70;;;;;;5009427;28;20037;-73
2023/05/09 11:13:10;;;;;;;48.40;26.17;;;18.80;93.10;;;;;;5006258;28;20038;-74
2023/05/09 11:16:09;;;;;;;52.15;28.33;;;18.70;93.20;;;;;;5024509;28;20042;-73
2023/05/09 11:18:49;;;;;;;47.83;28.30;;;18.70;92.80;;;;;;5007960;28;20053;-74
2023/05/09 11:21:15;;;;;;;50.05;25.83;;;18.70;92.80;;;;;;5023034;28;20128;-78
2023/05/09 11:23:41;;;;;;;48.13;27.25;;;18.90;93.10;;;;;;5026868;28;20573;-76
2023/05/09 11:26:08;;;;;;;47.95;26.90;;;18.80;92.60;;;;;;5041177;28;20049;-74
2023/05/09 11:28:36;;;;;;;50.42;26.80;;;18.80;92.80;;;;;;5012162;28;20037;-76
2023/05/09 11:31:16;;;;;;;48.25;26.40;;;18.80;92.80;;;;;;4998276;28;20046;-75
2023/05/09 11:33:46;;;;;;;55.47;27.80;;;18.60;92.80;;;;;;5018763;28;20042;-72
2023/05/09 11:36:24;;;;;;;62.50;28.80;;;18.60;93.10;;;;;;5015321;28;20045;-77
2023/05/09 11:39:00;;;;;;;59.42;29.48;;;18.70;93.30;;;;;;4996821;28;20038;-74
2023/05/09 11:41:27;;;;;;;58.05;28.27;;;19.00;93.10;;;;;;5018413;28;20397;-73
2023/05/09 11:43:55;;;;;;;51.92;28.58;;;19.30;92.50;;;;;;5012764;28;20373;-76
2023/05/09 11:46:20;;;;;;;55.45;27.73;;;19.60;92.20;;;;;;4998475;28;20116;-80
2023/05/09 11:48:47;;;;;;;54.97;29.13;;;19.80;91.90;;;;;;5018097;28;20061;-74
2023/05/09 11:51:17;;;;;;;50.03;26.40;;;19.80;91.30;;;;;;5022869;28;20486;-78
2023/05/09 11:53:45;;;;;;;51.53;27.27;;;19.70;90.80;;;;;;5021088;28;20040;-75
2023/05/09 11:56:13;;;;;;;52.78;26.70;;;19.40;91.10;;;;;;5010971;28;20045;-77
2023/05/09 11:58:39;;;;;;;56.85;27.63;;;19.30;91.10;;;;;;5012571;28;20042;-74
2023/05/09 12:01:05;;;;;;;50.53;27.35;;;19.20;91.00;;;;;;5010366;28;20575;-74
2023/05/09 12:03:32;;;;;;;50.55;27.70;;;19.10;91.20;;;;;;5024323;28;20094;-74
2023/05/09 12:05:57;;;;;;;50.20;28.52;;;19.00;91.30;;;;;;5009855;28;20109;-71
2023/05/09 12:08:23;;;;;;;44.67;26.15;;;18.50;92.80;;;;;;5029203;28;20171;-74
2023/05/09 12:10:50;;;;;;;56.42;27.95;;;17.50;94.60;;;;;;5024081;28;20033;-71
2023/05/09 12:13:16;;;;;;;54.92;26.67;;;17.30;97.10;;;;;;4999695;28;20079;-74
2023/05/09 12:15:42;;;;;;;48.65;27.42;;;17.10;99.80;;;;;;5008239;28;20582;-72
2023/05/09 12:18:08;;;;;;;56.30;28.00;;;17.00;99.90;;;;;;5014808;28;20073;-72
2023/05/09 12:20:49;;;;;;;55.53;28.55;;;16.90;99.90;;;;;;5021208;28;20489;-70
2023/05/09 12:23:15;;;;;;;62.50;30.70;;;17.00;99.90;;;;;;5015497;28;20084;-70
2023/05/09 12:25:54;;;;;;;63.10;31.60;;;17.00;99.90;;;;;;5015573;28;20500;-71
2023/05/09 12:28:22;;;;;;;69.07;32.80;;;17.10;99.90;;;;;;5028593;28;20033;-72
2023/05/09 12:30:48;;;;;;;70.85;32.92;;;17.10;99.90;;;;;;5028058;28;20083;-70